sensor_id;sensor_type;location;lat;lon;timestamp;pressure;altitude;pressure_sealevel;temperature;humidity
63088;BME280;49173;43.164;27.786;2023-05-14T00:00:51;101255.31;;;12.50;71.67
63088;BME280;49173;43.164;27.786;2023-05-14T00:03:17;101254.53;;;12.48;72.00
63088;BME280;49173;43.164;27.786;2023-05-14T00:05:43;101262.75;;;12.45;72.08
63088;BME280;49173;43.164;27.786;2023-05-14T00:08:08;101254.75;;;12.43;72.32
63088;BME280;49173;43.164;27.786;2023-05-14T00:10:34;101264.56;;;12.44;72.79
63088;BME280;49173;43.164;27.786;2023-05-14T00:13:00;101262.91;;;12.42;72.95
63088;BME280;49173;43.164;27.786;2023-05-14T00:15:26;101268.28;;;12.42;72.60
63088;BME280;49173;43.164;27.786;2023-05-14T00:17:51;101269.25;;;12.41;72.46
63088;BME280;49173;43.164;27.786;2023-05-14T00:20:17;101274.53;;;12.42;72.72
63088;BME280;49173;43.164;27.786;2023-05-14T00:22:43;101272.84;;;12.40;72.98
63088;BME280;49173;43.164;27.786;2023-05-14T00:25:09;101279.09;;;12.40;73.19
63088;BME280;49173;43.164;27.786;2023-05-14T00:27:35;101288.22;;;12.37;73.29
63088;BME280;49173;43.164;27.786;2023-05-14T00:30:04;101290.13;;;12.35;73.23
63088;BME280;49173;43.164;27.786;2023-05-14T00:32:31;101290.25;;;12.32;72.93
63088;BME280;49173;43.164;27.786;2023-05-14T00:34:57;101293.09;;;12.29;72.46
63088;BME280;49173;43.164;27.786;2023-05-14T00:37:23;101292.13;;;12.30;72.11
63088;BME280;49173;43.164;27.786;2023-05-14T00:39:49;101294.16;;;12.25;72.06
63088;BME280;49173;43.164;27.786;2023-05-14T00:42:15;101293.59;;;12.19;72.33
63088;BME280;49173;43.164;27.786;2023-05-14T00:44:40;101287.41;;;12.17;72.62
63088;BME280;49173;43.164;27.786;2023-05-14T00:47:07;101286.69;;;12.13;72.98
63088;BME280;49173;43.164;27.786;2023-05-14T00:49:33;101282.31;;;12.10;73.16
63088;BME280;49173;43.164;27.786;2023-05-14T00:51:59;101280.66;;;12.08;73.70
63088;BME280;49173;43.164;27.786;2023-05-14T00:54:26;101278.03;;;12.06;74.39
63088;BME280;49173;43.164;27.786;2023-05-14T00:56:53;101273.66;;;12.04;74.40
63088;BME280;49173;43.164;27.786;2023-05-14T00:59:19;101268.41;;;12.01;75.00
63088;BME280;49173;43.164;27.786;2023-05-14T01:01:45;101277.56;;;11.97;75.03
63088;BME280;49173;43.164;27.786;2023-05-14T01:04:11;101271.22;;;11.98;75.34
63088;BME280;49173;43.164;27.786;2023-05-14T01:09:35;101262.16;;;12.00;74.83
63088;BME280;49173;43.164;27.786;2023-05-14T01:12:26;101259.56;;;11.99;74.94
63088;BME280;49173;43.164;27.786;2023-05-14T01:17:42;101258.09;;;11.92;74.65
63088;BME280;49173;43.164;27.786;2023-05-14T01:20:10;101256.56;;;11.86;74.82
63088;BME280;49173;43.164;27.786;2023-05-14T01:22:36;101255.81;;;11.82;74.41
63088;BME280;49173;43.164;27.786;2023-05-14T01:25:03;101263.13;;;11.79;74.60
63088;BME280;49173;43.164;27.786;2023-05-14T01:27:59;101262.19;;;11.80;75.15
63088;BME280;49173;43.164;27.786;2023-05-14T01:30:31;101259.69;;;11.75;75.24
63088;BME280;49173;43.164;27.786;2023-05-14T01:33:01;101255.41;;;11.71;74.88
63088;BME280;49173;43.164;27.786;2023-05-14T01:35:29;101262.00;;;11.64;74.66
63088;BME280;49173;43.164;27.786;2023-05-14T01:38:03;101251.66;;;11.55;74.72
63088;BME280;49173;43.164;27.786;2023-05-14T01:40:31;101255.34;;;11.52;74.46
63088;BME280;49173;43.164;27.786;2023-05-14T01:42:58;101259.00;;;11.51;74.02
63088;BME280;49173;43.164;27.786;2023-05-14T01:45:25;101258.25;;;11.48;74.51
63088;BME280;49173;43.164;27.786;2023-05-14T01:47:52;101262.81;;;11.46;74.54
63088;BME280;49173;43.164;27.786;2023-05-14T01:50:18;101264.78;;;11.42;74.41
63088;BME280;49173;43.164;27.786;2023-05-14T01:52:44;101262.34;;;11.36;74.46
63088;BME280;49173;43.164;27.786;2023-05-14T01:55:11;101264.50;;;11.28;74.41
63088;BME280;49173;43.164;27.786;2023-05-14T01:57:37;101263.84;;;11.23;74.68
63088;BME280;49173;43.164;27.786;2023-05-14T02:00:03;101256.91;;;11.17;74.87
63088;BME280;49173;43.164;27.786;2023-05-14T02:02:30;101260.66;;;11.13;74.77
63088;BME280;49173;43.164;27.786;2023-05-14T02:04:56;101262.47;;;11.13;75.15
63088;BME280;49173;43.164;27.786;2023-05-14T02:07:21;101258.09;;;11.10;75.64
63088;BME280;49173;43.164;27.786;2023-05-14T02:09:47;101261.66;;;11.11;76.24
63088;BME280;49173;43.164;27.786;2023-05-14T02:12:13;101257.16;;;11.11;77.23
63088;BME280;49173;43.164;27.786;2023-05-14T02:14:39;101261.56;;;11.14;77.28
63088;BME280;49173;43.164;27.786;2023-05-14T02:17:05;101265.03;;;11.16;77.71
63088;BME280;49173;43.164;27.786;2023-05-14T02:19:31;101257.69;;;11.19;78.37
63088;BME280;49173;43.164;27.786;2023-05-14T02:21:58;101260.19;;;11.24;78.43
63088;BME280;49173;43.164;27.786;2023-05-14T02:24:25;101260.94;;;11.27;77.97
63088;BME280;49173;43.164;27.786;2023-05-14T02:26:51;101261.06;;;11.24;78.04
63088;BME280;49173;43.164;27.786;2023-05-14T02:29:17;101256.50;;;11.26;78.34
63088;BME280;49173;43.164;27.786;2023-05-14T02:31:43;101257.44;;;11.25;78.56
63088;BME280;49173;43.164;27.786;2023-05-14T02:34:09;101258.31;;;11.26;78.59
63088;BME280;49173;43.164;27.786;2023-05-14T02:36:35;101259.19;;;11.26;78.07
63088;BME280;49173;43.164;27.786;2023-05-14T02:39:00;101265.44;;;11.27;78.32
63088;BME280;49173;43.164;27.786;2023-05-14T02:41:26;101263.59;;;11.27;78.03
63088;BME280;49173;43.164;27.786;2023-05-14T02:43:52;101264.50;;;11.28;77.53
63088;BME280;49173;43.164;27.786;2023-05-14T02:46:19;101268.94;;;11.29;77.85
63088;BME280;49173;43.164;27.786;2023-05-14T02:48:44;101268.97;;;11.27;77.29
63088;BME280;49173;43.164;27.786;2023-05-14T02:51:10;101276.31;;;11.24;77.16
63088;BME280;49173;43.164;27.786;2023-05-14T02:53:36;101273.78;;;11.21;77.37
63088;BME280;49173;43.164;27.786;2023-05-14T02:56:02;101274.69;;;11.20;79.01
63088;BME280;49173;43.164;27.786;2023-05-14T02:58:28;101287.06;;;11.24;79.20
63088;BME280;49173;43.164;27.786;2023-05-14T03:00:54;101272.88;;;11.20;79.02
63088;BME280;49173;43.164;27.786;2023-05-14T03:03:21;101288.09;;;11.21;78.59
63088;BME280;49173;43.164;27.786;2023-05-14T03:05:46;101288.09;;;11.21;77.89
63088;BME280;49173;43.164;27.786;2023-05-14T03:08:12;101294.53;;;11.17;77.49
63088;BME280;49173;43.164;27.786;2023-05-14T03:10:38;101281.97;;;11.18;77.59
63088;BME280;49173;43.164;27.786;2023-05-14T03:13:03;101296.19;;;11.20;77.98
63088;BME280;49173;43.164;27.786;2023-05-14T03:15:29;101295.31;;;11.19;77.92
63088;BME280;49173;43.164;27.786;2023-05-14T03:17:55;101283.63;;;11.20;78.12
63088;BME280;49173;43.164;27.786;2023-05-14T03:20:25;101291.69;;;11.20;78.38
63088;BME280;49173;43.164;27.786;2023-05-14T03:22:51;101300.66;;;11.21;78.61
63088;BME280;49173;43.164;27.786;2023-05-14T03:25:17;101297.06;;;11.20;78.52
63088;BME280;49173;43.164;27.786;2023-05-14T03:27:43;101295.31;;;11.19;78.31
63088;BME280;49173;43.164;27.786;2023-05-14T03:30:09;101294.38;;;11.20;77.99
63088;BME280;49173;43.164;27.786;2023-05-14T03:32:36;101299.72;;;11.22;77.77
63088;BME280;49173;43.164;27.786;2023-05-14T03:35:02;101297.97;;;11.21;77.53
63088;BME280;49173;43.164;27.786;2023-05-14T03:37:28;101308.75;;;11.19;77.71
63088;BME280;49173;43.164;27.786;2023-05-14T03:39:54;101304.31;;;11.18;77.35
63088;BME280;49173;43.164;27.786;2023-05-14T03:42:20;101302.56;;;11.17;77.37
63088;BME280;49173;43.164;27.786;2023-05-14T03:44:46;101305.19;;;11.19;77.18
63088;BME280;49173;43.164;27.786;2023-05-14T03:47:12;101299.75;;;11.20;77.46
63088;BME280;49173;43.164;27.786;2023-05-14T03:49:37;101300.31;;;11.28;77.78
63088;BME280;49173;43.164;27.786;2023-05-14T03:52:03;101297.50;;;11.32;77.77
63088;BME280;49173;43.164;27.786;2023-05-14T03:54:29;101293.78;;;11.34;77.43
63088;BME280;49173;43.164;27.786;2023-05-14T03:56:55;101300.88;;;11.37;77.28
63088;BME280;49173;43.164;27.786;2023-05-14T03:59:21;101298.03;;;11.40;77.13
63088;BME280;49173;43.164;27.786;2023-05-14T04:01:47;101310.34;;;11.45;76.55
63088;BME280;49173;43.164;27.786;2023-05-14T04:04:12;101317.97;;;11.54;77.29
63088;BME280;49173;43.164;27.786;2023-05-14T04:06:38;101319.28;;;11.66;77.25
63088;BME280;49173;43.164;27.786;2023-05-14T04:09:04;101320.66;;;11.75;76.76
63088;BME280;49173;43.164;27.786;2023-05-14T04:11:29;101323.16;;;11.79;76.39
63088;BME280;49173;43.164;27.786;2023-05-14T04:13:55;101319.03;;;11.93;76.55
63088;BME280;49173;43.164;27.786;2023-05-14T04:16:21;101315.34;;;12.14;76.91
63088;BME280;49173;43.164;27.786;2023-05-14T04:18:47;101308.16;;;12.33;75.96
63088;BME280;49173;43.164;27.786;2023-05-14T04:21:12;101314.75;;;12.45;75.80
63088;BME280;49173;43.164;27.786;2023-05-14T04:23:38;101327.50;;;12.60;77.31
63088;BME280;49173;43.164;27.786;2023-05-14T04:26:04;101320.69;;;12.89;79.00
63088;BME280;49173;43.164;27.786;2023-05-14T04:28:31;101324.50;;;13.22;77.96
63088;BME280;49173;43.164;27.786;2023-05-14T04:30:57;101318.34;;;13.54;78.15
63088;BME280;49173;43.164;27.786;2023-05-14T04:33:23;101314.44;;;13.77;75.31
63088;BME280;49173;43.164;27.786;2023-05-14T04:35:49;101306.56;;;13.90;73.90
63088;BME280;49173;43.164;27.786;2023-05-14T04:38:14;101306.06;;;13.99;73.69
63088;BME280;49173;43.164;27.786;2023-05-14T04:40:40;101308.97;;;14.12;73.91
63088;BME280;49173;43.164;27.786;2023-05-14T04:43:08;101304.69;;;14.23;73.85
63088;BME280;49173;43.164;27.786;2023-05-14T04:45:34;101310.50;;;14.33;73.22
63088;BME280;49173;43.164;27.786;2023-05-14T04:48:01;101302.38;;;14.33;72.49
63088;BME280;49173;43.164;27.786;2023-05-14T04:50:26;101304.91;;;14.36;74.00
63088;BME280;49173;43.164;27.786;2023-05-14T04:52:52;101315.28;;;14.44;74.04
63088;BME280;49173;43.164;27.786;2023-05-14T04:55:20;101311.59;;;14.62;73.64
63088;BME280;49173;43.164;27.786;2023-05-14T04:57:46;101327.63;;;14.81;71.98
63088;BME280;49173;43.164;27.786;2023-05-14T05:00:12;101316.38;;;14.89;70.25
63088;BME280;49173;43.164;27.786;2023-05-14T05:02:38;101318.72;;;14.95;70.05
63088;BME280;49173;43.164;27.786;2023-05-14T05:05:06;101309.56;;;14.97;71.14
63088;BME280;49173;43.164;27.786;2023-05-14T05:07:31;101314.16;;;15.11;73.19
63088;BME280;49173;43.164;27.786;2023-05-14T05:09:57;101319.25;;;15.31;74.74
63088;BME280;49173;43.164;27.786;2023-05-14T05:12:25;101319.44;;;15.58;73.88
63088;BME280;49173;43.164;27.786;2023-05-14T05:14:57;101316.34;;;15.80;73.00
63088;BME280;49173;43.164;27.786;2023-05-14T05:17:24;101311.97;;;16.06;71.47
63088;BME280;49173;43.164;27.786;2023-05-14T05:20:00;101310.56;;;16.29;70.74
63088;BME280;49173;43.164;27.786;2023-05-14T05:22:26;101310.50;;;16.58;69.35
63088;BME280;49173;43.164;27.786;2023-05-14T05:24:53;101309.59;;;16.86;69.19
63088;BME280;49173;43.164;27.786;2023-05-14T05:27:19;101307.50;;;17.03;67.96
63088;BME280;49173;43.164;27.786;2023-05-14T05:29:50;101313.22;;;17.26;69.09
63088;BME280;49173;43.164;27.786;2023-05-14T05:32:17;101316.97;;;17.50;67.53
63088;BME280;49173;43.164;27.786;2023-05-14T05:34:44;101300.81;;;17.62;64.97
63088;BME280;49173;43.164;27.786;2023-05-14T05:37:10;101299.00;;;17.75;63.24
63088;BME280;49173;43.164;27.786;2023-05-14T05:39:39;101299.56;;;17.93;63.77
63088;BME280;49173;43.164;27.786;2023-05-14T05:42:06;101298.91;;;18.15;63.90
63088;BME280;49173;43.164;27.786;2023-05-14T05:44:33;101292.59;;;18.39;63.49
63088;BME280;49173;43.164;27.786;2023-05-14T05:47:01;101297.63;;;18.57;61.07
63088;BME280;49173;43.164;27.786;2023-05-14T05:49:30;101302.63;;;18.76;61.20
63088;BME280;49173;43.164;27.786;2023-05-14T05:52:00;101287.41;;;18.97;59.98
63088;BME280;49173;43.164;27.786;2023-05-14T05:54:26;101284.72;;;19.08;56.19
63088;BME280;49173;43.164;27.786;2023-05-14T05:56:54;101281.22;;;19.19;57.09
63088;BME280;49173;43.164;27.786;2023-05-14T05:59:23;101293.56;;;19.23;52.27
63088;BME280;49173;43.164;27.786;2023-05-14T06:01:49;101297.34;;;19.33;53.20
63088;BME280;49173;43.164;27.786;2023-05-14T06:04:16;101297.50;;;19.43;49.33
63088;BME280;49173;43.164;27.786;2023-05-14T06:06:42;101296.00;;;19.39;49.50
63088;BME280;49173;43.164;27.786;2023-05-14T06:09:10;101294.03;;;19.52;47.53
63088;BME280;49173;43.164;27.786;2023-05-14T06:11:38;101298.09;;;19.59;48.10
63088;BME280;49173;43.164;27.786;2023-05-14T06:14:04;101299.84;;;19.71;47.39
63088;BME280;49173;43.164;27.786;2023-05-14T06:16:31;101302.22;;;19.76;47.56
63088;BME280;49173;43.164;27.786;2023-05-14T06:19:01;101300.13;;;19.91;46.57
63088;BME280;49173;43.164;27.786;2023-05-14T06:21:28;101297.31;;;20.03;45.40
63088;BME280;49173;43.164;27.786;2023-05-14T06:23:54;101304.25;;;20.19;45.90
63088;BME280;49173;43.164;27.786;2023-05-14T06:26:23;101301.63;;;20.28;44.02
63088;BME280;49173;43.164;27.786;2023-05-14T06:28:51;101303.25;;;20.42;44.43
63088;BME280;49173;43.164;27.786;2023-05-14T06:31:20;101293.22;;;20.54;43.12
63088;BME280;49173;43.164;27.786;2023-05-14T06:33:46;101291.88;;;20.60;39.07
63088;BME280;49173;43.164;27.786;2023-05-14T06:36:13;101288.00;;;20.62;39.45
63088;BME280;49173;43.164;27.786;2023-05-14T06:38:39;101292.47;;;20.74;39.66
63088;BME280;49173;43.164;27.786;2023-05-14T06:41:07;101286.84;;;20.87;37.26
63088;BME280;49173;43.164;27.786;2023-05-14T06:43:33;101293.91;;;20.90;36.59
63088;BME280;49173;43.164;27.786;2023-05-14T06:46:01;101284.34;;;20.95;37.47
63088;BME280;49173;43.164;27.786;2023-05-14T06:48:30;101295.75;;;21.00;35.85
63088;BME280;49173;43.164;27.786;2023-05-14T06:50:59;101297.34;;;21.03;37.04
63088;BME280;49173;43.164;27.786;2023-05-14T06:53:28;101295.34;;;21.05;36.79
63088;BME280;49173;43.164;27.786;2023-05-14T06:56:01;101302.53;;;21.06;36.04
63088;BME280;49173;43.164;27.786;2023-05-14T06:58:31;101298.47;;;21.00;35.69
63088;BME280;49173;43.164;27.786;2023-05-14T07:00:58;101298.34;;;21.02;36.01
63088;BME280;49173;43.164;27.786;2023-05-14T07:03:25;101308.25;;;21.03;35.79
63088;BME280;49173;43.164;27.786;2023-05-14T07:05:54;101305.88;;;21.09;35.46
63088;BME280;49173;43.164;27.786;2023-05-14T07:08:20;101302.38;;;21.19;35.24
63088;BME280;49173;43.164;27.786;2023-05-14T07:10:48;101301.00;;;21.24;35.74
63088;BME280;49173;43.164;27.786;2023-05-14T07:13:16;101299.63;;;21.30;35.39
63088;BME280;49173;43.164;27.786;2023-05-14T07:15:42;101297.69;;;21.42;36.02
63088;BME280;49173;43.164;27.786;2023-05-14T07:18:11;101295.78;;;21.53;33.70
63088;BME280;49173;43.164;27.786;2023-05-14T07:20:40;101311.50;;;21.61;34.67
63088;BME280;49173;43.164;27.786;2023-05-14T07:23:08;101314.31;;;21.71;34.50
63088;BME280;49173;43.164;27.786;2023-05-14T07:25:37;101309.31;;;21.76;35.23
63088;BME280;49173;43.164;27.786;2023-05-14T07:28:06;101321.13;;;21.76;33.71
63088;BME280;49173;43.164;27.786;2023-05-14T07:30:34;101326.47;;;21.78;35.29
63088;BME280;49173;43.164;27.786;2023-05-14T07:33:00;101323.41;;;21.71;32.61
63088;BME280;49173;43.164;27.786;2023-05-14T07:35:27;101314.72;;;21.66;34.70
63088;BME280;49173;43.164;27.786;2023-05-14T07:37:54;101319.03;;;21.48;33.88
63088;BME280;49173;43.164;27.786;2023-05-14T07:40:21;101318.44;;;21.44;34.70
63088;BME280;49173;43.164;27.786;2023-05-14T07:42:51;101315.56;;;21.46;35.18
63088;BME280;49173;43.164;27.786;2023-05-14T07:45:21;101298.56;;;21.42;35.67
63088;BME280;49173;43.164;27.786;2023-05-14T07:47:49;101301.91;;;21.46;35.87
63088;BME280;49173;43.164;27.786;2023-05-14T07:50:19;101305.72;;;21.54;36.01
63088;BME280;49173;43.164;27.786;2023-05-14T07:52:46;101305.31;;;21.59;35.75
63088;BME280;49173;43.164;27.786;2023-05-14T07:55:13;101314.25;;;21.61;36.28
63088;BME280;49173;43.164;27.786;2023-05-14T07:57:42;101315.25;;;21.60;35.44
63088;BME280;49173;43.164;27.786;2023-05-14T08:00:13;101323.94;;;21.65;36.04
63088;BME280;49173;43.164;27.786;2023-05-14T08:02:41;101325.25;;;21.71;36.40
63088;BME280;49173;43.164;27.786;2023-05-14T08:05:10;101326.06;;;21.82;35.07
63088;BME280;49173;43.164;27.786;2023-05-14T08:07:38;101323.25;;;21.73;35.20
63088;BME280;49173;43.164;27.786;2023-05-14T08:10:06;101318.03;;;21.70;35.92
63088;BME280;49173;43.164;27.786;2023-05-14T08:12:32;101311.66;;;21.80;36.30
63088;BME280;49173;43.164;27.786;2023-05-14T08:15:04;101320.25;;;21.76;35.73
63088;BME280;49173;43.164;27.786;2023-05-14T08:17:33;101319.00;;;21.80;35.25
63088;BME280;49173;43.164;27.786;2023-05-14T08:19:59;101317.50;;;21.76;34.29
63088;BME280;49173;43.164;27.786;2023-05-14T08:22:28;101320.84;;;21.58;34.80
63088;BME280;49173;43.164;27.786;2023-05-14T08:25:30;101306.00;;;21.51;35.38
63088;BME280;49173;43.164;27.786;2023-05-14T08:28:06;101311.03;;;21.56;35.81
63088;BME280;49173;43.164;27.786;2023-05-14T08:30:59;101310.06;;;21.57;35.57
63088;BME280;49173;43.164;27.786;2023-05-14T08:33:47;101305.72;;;21.54;35.87
63088;BME280;49173;43.164;27.786;2023-05-14T08:36:16;101308.19;;;21.57;35.97
63088;BME280;49173;43.164;27.786;2023-05-14T08:38:48;101299.00;;;21.58;36.22
63088;BME280;49173;43.164;27.786;2023-05-14T08:41:18;101296.59;;;21.65;36.16
63088;BME280;49173;43.164;27.786;2023-05-14T08:43:56;101288.66;;;21.62;35.98
63088;BME280;49173;43.164;27.786;2023-05-14T08:46:31;101290.47;;;21.52;35.83
63088;BME280;49173;43.164;27.786;2023-05-14T08:52:29;101284.47;;;21.37;36.17
63088;BME280;49173;43.164;27.786;2023-05-14T08:55:04;101287.56;;;21.32;36.15
63088;BME280;49173;43.164;27.786;2023-05-14T08:57:34;101297.91;;;21.29;36.36
63088;BME280;49173;43.164;27.786;2023-05-14T09:00:03;101299.63;;;21.30;36.02
63088;BME280;49173;43.164;27.786;2023-05-14T09:02:43;101302.22;;;21.31;36.41
63088;BME280;49173;43.164;27.786;2023-05-14T09:05:10;101296.78;;;21.31;36.19
63088;BME280;49173;43.164;27.786;2023-05-14T09:07:43;101293.03;;;21.21;35.53
63088;BME280;49173;43.164;27.786;2023-05-14T09:10:12;101294.84;;;21.11;36.51
63088;BME280;49173;43.164;27.786;2023-05-14T09:12:57;101290.59;;;21.07;35.03
63088;BME280;49173;43.164;27.786;2023-05-14T09:15:58;101298.13;;;20.94;37.13
63088;BME280;49173;43.164;27.786;2023-05-14T09:22:58;101292.59;;;20.73;36.09
63088;BME280;49173;43.164;27.786;2023-05-14T09:30:14;101281.19;;;20.68;37.58
63088;BME280;49173;43.164;27.786;2023-05-14T09:32:45;101279.59;;;20.65;37.33
63088;BME280;49173;43.164;27.786;2023-05-14T09:35:26;101289.22;;;20.69;37.09
63088;BME280;49173;43.164;27.786;2023-05-14T09:38:15;101302.00;;;20.69;36.17
63088;BME280;49173;43.164;27.786;2023-05-14T09:41:02;101313.28;;;20.64;37.53
63088;BME280;49173;43.164;27.786;2023-05-14T09:43:43;101310.81;;;20.72;36.91
63088;BME280;49173;43.164;27.786;2023-05-14T09:46:22;101310.06;;;20.81;36.56
63088;BME280;49173;43.164;27.786;2023-05-14T09:52:06;101305.53;;;21.03;36.20
63088;BME280;49173;43.164;27.786;2023-05-14T09:54:47;101297.94;;;21.06;36.08
63088;BME280;49173;43.164;27.786;2023-05-14T10:05:42;101301.44;;;21.08;36.67
63088;BME280;49173;43.164;27.786;2023-05-14T10:08:46;101298.81;;;21.07;36.83
63088;BME280;49173;43.164;27.786;2023-05-14T10:11:43;101307.41;;;21.02;37.39
63088;BME280;49173;43.164;27.786;2023-05-14T10:14:22;101306.53;;;21.02;37.42
63088;BME280;49173;43.164;27.786;2023-05-14T10:16:56;101304.53;;;21.04;37.55
63088;BME280;49173;43.164;27.786;2023-05-14T10:19:35;101302.44;;;21.07;37.32
63088;BME280;49173;43.164;27.786;2023-05-14T10:22:10;101299.56;;;21.09;36.80
63088;BME280;49173;43.164;27.786;2023-05-14T10:24:47;101295.09;;;21.08;36.86
63088;BME280;49173;43.164;27.786;2023-05-14T10:27:23;101295.47;;;21.03;36.84
63088;BME280;49173;43.164;27.786;2023-05-14T10:29:58;101296.47;;;21.02;36.66
63088;BME280;49173;43.164;27.786;2023-05-14T10:32:33;101293.63;;;20.93;36.07
63088;BME280;49173;43.164;27.786;2023-05-14T10:35:21;101287.84;;;20.86;36.37
63088;BME280;49173;43.164;27.786;2023-05-14T10:37:53;101283.88;;;20.79;36.13
63088;BME280;49173;43.164;27.786;2023-05-14T10:40:26;101292.47;;;20.74;36.00
63088;BME280;49173;43.164;27.786;2023-05-14T10:42:54;101299.78;;;20.74;37.15
63088;BME280;49173;43.164;27.786;2023-05-14T10:45:24;101300.16;;;20.69;36.82
63088;BME280;49173;43.164;27.786;2023-05-14T10:47:52;101296.56;;;20.69;36.54
63088;BME280;49173;43.164;27.786;2023-05-14T10:50:20;101293.31;;;20.75;36.00
63088;BME280;49173;43.164;27.786;2023-05-14T10:52:48;101295.53;;;20.81;37.05
63088;BME280;49173;43.164;27.786;2023-05-14T10:55:15;101288.72;;;20.87;36.09
63088;BME280;49173;43.164;27.786;2023-05-14T10:57:46;101288.34;;;20.80;36.45
63088;BME280;49173;43.164;27.786;2023-05-14T11:00:13;101292.81;;;20.81;35.65
63088;BME280;49173;43.164;27.786;2023-05-14T11:02:42;101286.06;;;20.96;36.11
63088;BME280;49173;43.164;27.786;2023-05-14T11:05:13;101289.66;;;20.97;34.91
63088;BME280;49173;43.164;27.786;2023-05-14T11:07:45;101291.22;;;21.10;36.29
63088;BME280;49173;43.164;27.786;2023-05-14T11:10:16;101293.94;;;21.22;36.14
63088;BME280;49173;43.164;27.786;2023-05-14T11:12:49;101286.34;;;21.25;34.27
63088;BME280;49173;43.164;27.786;2023-05-14T11:15:21;101281.16;;;21.22;33.70
63088;BME280;49173;43.164;27.786;2023-05-14T11:17:48;101292.53;;;21.27;35.39
63088;BME280;49173;43.164;27.786;2023-05-14T11:20:17;101284.31;;;21.27;33.19
63088;BME280;49173;43.164;27.786;2023-05-14T11:22:47;101268.75;;;21.29;34.04
63088;BME280;49173;43.164;27.786;2023-05-14T11:25:15;101268.84;;;21.28;33.26
63088;BME280;49173;43.164;27.786;2023-05-14T11:27:48;101258.16;;;21.25;32.70
63088;BME280;49173;43.164;27.786;2023-05-14T11:30:20;101259.31;;;21.22;33.34
63088;BME280;49173;43.164;27.786;2023-05-14T11:32:48;101248.50;;;21.21;33.04
63088;BME280;49173;43.164;27.786;2023-05-14T11:35:16;101249.63;;;21.18;33.40
63088;BME280;49173;43.164;27.786;2023-05-14T11:37:49;101242.94;;;21.22;33.07
63088;BME280;49173;43.164;27.786;2023-05-14T11:42:45;101232.19;;;21.09;33.93
63088;BME280;49173;43.164;27.786;2023-05-14T11:45:12;101228.44;;;21.10;34.72
63088;BME280;49173;43.164;27.786;2023-05-14T11:47:45;101228.78;;;21.17;34.91
63088;BME280;49173;43.164;27.786;2023-05-14T11:50:12;101226.00;;;21.07;34.26
63088;BME280;49173;43.164;27.786;2023-05-14T11:52:40;101216.50;;;20.91;33.57
63088;BME280;49173;43.164;27.786;2023-05-14T11:55:11;101201.25;;;20.88;35.57
63088;BME280;49173;43.164;27.786;2023-05-14T11:57:39;101197.34;;;21.02;35.99
63088;BME280;49173;43.164;27.786;2023-05-14T12:00:12;101189.63;;;21.07;35.64
63088;BME280;49173;43.164;27.786;2023-05-14T12:02:44;101182.19;;;21.09;35.49
63088;BME280;49173;43.164;27.786;2023-05-14T12:05:12;101173.84;;;21.10;35.35
63088;BME280;49173;43.164;27.786;2023-05-14T12:07:43;101175.06;;;21.18;36.12
63088;BME280;49173;43.164;27.786;2023-05-14T12:10:12;101174.13;;;21.28;35.22
63088;BME280;49173;43.164;27.786;2023-05-14T12:12:38;101169.06;;;21.24;33.79
63088;BME280;49173;43.164;27.786;2023-05-14T12:15:11;101162.34;;;21.28;34.12
63088;BME280;49173;43.164;27.786;2023-05-14T12:17:41;101164.66;;;21.11;34.24
63088;BME280;49173;43.164;27.786;2023-05-14T12:20:09;101165.84;;;20.98;34.79
63088;BME280;49173;43.164;27.786;2023-05-14T12:22:36;101170.31;;;20.99;34.31
63088;BME280;49173;43.164;27.786;2023-05-14T12:25:02;101167.56;;;20.99;34.36
63088;BME280;49173;43.164;27.786;2023-05-14T12:27:31;101161.78;;;20.92;34.90
63088;BME280;49173;43.164;27.786;2023-05-14T12:30:00;101158.31;;;20.90;35.45
63088;BME280;49173;43.164;27.786;2023-05-14T12:32:31;101162.00;;;21.00;36.09
63088;BME280;49173;43.164;27.786;2023-05-14T12:34:57;101146.84;;;21.07;33.76
63088;BME280;49173;43.164;27.786;2023-05-14T12:37:24;101155.13;;;21.06;33.66
63088;BME280;49173;43.164;27.786;2023-05-14T12:39:53;101151.75;;;21.13;33.24
63088;BME280;49173;43.164;27.786;2023-05-14T12:42:20;101154.28;;;21.05;34.18
63088;BME280;49173;43.164;27.786;2023-05-14T12:44:47;101155.13;;;21.06;34.86
63088;BME280;49173;43.164;27.786;2023-05-14T12:47:13;101148.41;;;21.10;34.99
63088;BME280;49173;43.164;27.786;2023-05-14T12:49:39;101138.38;;;21.10;34.39
63088;BME280;49173;43.164;27.786;2023-05-14T12:52:05;101151.41;;;21.07;35.01
63088;BME280;49173;43.164;27.786;2023-05-14T12:54:32;101155.59;;;21.11;33.59
63088;BME280;49173;43.164;27.786;2023-05-14T12:56:59;101158.47;;;21.09;34.80
63088;BME280;49173;43.164;27.786;2023-05-14T12:59:26;101154.88;;;21.09;35.56
63088;BME280;49173;43.164;27.786;2023-05-14T13:01:55;101137.38;;;21.11;33.36
63088;BME280;49173;43.164;27.786;2023-05-14T13:04:21;101144.69;;;21.11;34.38
63088;BME280;49173;43.164;27.786;2023-05-14T13:06:47;101156.94;;;21.17;33.93
63088;BME280;49173;43.164;27.786;2023-05-14T13:09:15;101148.47;;;21.20;33.70
63088;BME280;49173;43.164;27.786;2023-05-14T13:11:43;101149.09;;;21.23;34.19
63088;BME280;49173;43.164;27.786;2023-05-14T13:14:09;101146.84;;;21.28;33.54
63088;BME280;49173;43.164;27.786;2023-05-14T13:16:35;101146.22;;;21.25;33.55
63088;BME280;49173;43.164;27.786;2023-05-14T13:19:03;101143.84;;;21.31;32.54
63088;BME280;49173;43.164;27.786;2023-05-14T13:21:29;101140.59;;;21.37;34.37